Terminal Aerodrome Forecast
Issued by NWS Sterling, VA

Home | Current Version | Previous Version | Text Only | Print | Product List | Glossary On
Versions: 1 2 3 4 5 6 7 8 9 10 11 12 13 14 15 16 17 18 19 20 21 22
000
FTUS41 KLWX 220800 AAA
TAFBWI
TAF AMD
KBWI 220857Z 2209/2312 33008KT 5SM -SHRA OVC015
     FM221100 36012KT 5SM -SHRA SCT008 OVC012
     FM221700 35015G25KT P6SM OVC025
     FM222300 34016KT P6SM BKN040
     FM231100 31018G28KT P6SM SCT050=

USA.gov is the U.S. government's official web portal to all federal, state and local government web resources and services.